Time;durP1;ratioP1;P1;durP2;ratioP2;P2;SDS_P1;SDS_P2;PMS_P1;PMS_P2;Temp;Humidity;BMP_temperature;BMP_pressure;BME280_temperature;BME280_humidity;BME280_pressure;Samples;Min_cycle;Max_cycle;Signal;HPM_P1;HPM_P2
2022/06/30 00:01:40;;;;;;;3.72;3.00;;;;;;;;;;4957848;29;20241;-77
2022/06/30 00:04:09;;;;;;;3.55;3.17;;;;;;;;;;4957428;28;20559;-76
2022/06/30 00:06:38;;;;;;;3.10;2.88;;;;;;;;;;4957585;29;20206;-76
2022/06/30 00:09:06;;;;;;;4.50;2.78;;;;;;;;;;4957907;29;20207;-77
2022/06/30 00:11:34;;;;;;;3.30;2.80;;;;;;;;;;4957654;28;20203;-77
2022/06/30 00:14:04;;;;;;;3.17;2.97;;;;;;;;;;4957453;29;20262;-77
2022/06/30 00:16:33;;;;;;;3.30;2.92;;;;;;;;;;4957392;29;20245;-77
2022/06/30 00:19:01;;;;;;;3.50;3.20;;;;;;;;;;4955920;28;20220;-76
2022/06/30 00:21:30;;;;;;;3.15;2.95;;;;;;;;;;4957521;28;20214;-77
2022/06/30 00:23:59;;;;;;;3.13;2.92;;;;;;;;;;4957654;28;20206;-77
2022/06/30 00:26:27;;;;;;;4.47;3.10;;;;;;;;;;4957468;28;20210;-77
2022/06/30 00:28:56;;;;;;;3.33;3.00;;;;;;;;;;4957312;28;20210;-77
2022/06/30 00:31:26;;;;;;;3.30;3.10;;;;;;;;;;4957333;28;20226;-77
2022/06/30 00:33:54;;;;;;;3.42;3.13;;;;;;;;;;4956214;28;20680;-76
2022/06/30 00:36:22;;;;;;;4.70;3.10;;;;;;;;;;4956893;29;20210;-77
2022/06/30 00:38:51;;;;;;;3.30;3.00;;;;;;;;;;4957423;29;20273;-77
2022/06/30 00:41:19;;;;;;;5.82;3.33;;;;;;;;;;4957433;29;20273;-77
2022/06/30 00:43:49;;;;;;;4.25;3.17;;;;;;;;;;4957046;29;20245;-76
2022/06/30 00:46:18;;;;;;;4.20;3.45;;;;;;;;;;4957271;28;20225;-76
2022/06/30 00:48:48;;;;;;;3.33;3.03;;;;;;;;;;4956122;28;20205;-77
2022/06/30 00:51:18;;;;;;;3.28;3.00;;;;;;;;;;4955376;28;20234;-77
2022/06/30 00:53:48;;;;;;;4.32;2.85;;;;;;;;;;4956959;28;20214;-76
2022/06/30 00:56:16;;;;;;;4.15;2.97;;;;;;;;;;4957140;28;20766;-77
2022/06/30 00:58:45;;;;;;;4.93;3.03;;;;;;;;;;4956647;28;20613;-75
2022/06/30 01:01:14;;;;;;;3.78;3.25;;;;;;;;;;4956956;28;20234;-76
2022/06/30 01:03:44;;;;;;;4.47;3.15;;;;;;;;;;4956135;28;20206;-77
2022/06/30 01:06:15;;;;;;;3.30;3.00;;;;;;;;;;4956534;29;20285;-77
2022/06/30 01:08:43;;;;;;;6.07;3.30;;;;;;;;;;4956960;28;20187;-77
2022/06/30 01:13:58;;;;;;;3.47;2.97;;;;;;;;;;4956580;28;20208;-76
2022/06/30 01:16:26;;;;;;;3.60;3.30;;;;;;;;;;4956509;28;20265;-77
2022/06/30 01:18:55;;;;;;;3.58;2.90;;;;;;;;;;4956912;28;20695;-76
2022/06/30 01:21:27;;;;;;;3.33;3.08;;;;;;;;;;4955733;28;20198;-77
2022/06/30 01:23:58;;;;;;;3.50;2.90;;;;;;;;;;4956233;28;20262;-76
2022/06/30 01:26:27;;;;;;;3.17;2.88;;;;;;;;;;4956535;28;20209;-77
2022/06/30 01:28:55;;;;;;;3.35;3.05;;;;;;;;;;4957092;28;20198;-77
2022/06/30 01:33:58;;;;;;;3.80;3.00;;;;;;;;;;4956361;28;20233;-76
2022/06/30 01:36:28;;;;;;;5.07;3.10;;;;;;;;;;4955604;28;20211;-76
2022/06/30 01:38:56;;;;;;;5.93;2.97;;;;;;;;;;4956395;28;20203;-77
2022/06/30 01:41:24;;;;;;;3.53;3.22;;;;;;;;;;4956111;28;20205;-77
2022/06/30 01:43:53;;;;;;;3.50;3.20;;;;;;;;;;4955945;28;20257;-76
2022/06/30 01:46:21;;;;;;;5.25;3.50;;;;;;;;;;4955936;28;20214;-77
2022/06/30 01:48:50;;;;;;;3.00;2.80;;;;;;;;;;4956306;28;20236;-77
2022/06/30 01:51:18;;;;;;;4.28;3.03;;;;;;;;;;4954580;28;20269;-77
2022/06/30 01:53:48;;;;;;;3.40;3.10;;;;;;;;;;4956037;29;20644;-76
2022/06/30 01:56:17;;;;;;;3.83;3.10;;;;;;;;;;4955733;28;20230;-77
2022/06/30 01:58:45;;;;;;;3.65;3.30;;;;;;;;;;4955544;28;20212;-77
2022/06/30 02:01:14;;;;;;;3.53;3.20;;;;;;;;;;4955810;29;20224;-76
2022/06/30 02:03:42;;;;;;;4.25;3.35;;;;;;;;;;4955501;29;20233;-76
2022/06/30 02:06:11;;;;;;;3.67;3.30;;;;;;;;;;4936361;29;20275;-76
2022/06/30 02:08:39;;;;;;;3.45;3.13;;;;;;;;;;4936855;29;20211;-77
2022/06/30 02:11:09;;;;;;;6.60;3.20;;;;;;;;;;4936577;29;20226;-77
2022/06/30 02:13:38;;;;;;;3.45;3.15;;;;;;;;;;4936279;29;20259;-77
2022/06/30 02:16:06;;;;;;;3.40;3.20;;;;;;;;;;4936265;29;20652;-76
2022/06/30 02:18:35;;;;;;;4.47;3.22;;;;;;;;;;4938794;29;20203;-77
2022/06/30 02:21:03;;;;;;;4.28;3.40;;;;;;;;;;4956083;29;20213;-77
2022/06/30 02:23:31;;;;;;;3.33;3.03;;;;;;;;;;4955530;28;20273;-77
2022/06/30 02:26:00;;;;;;;3.58;3.28;;;;;;;;;;4955592;28;20227;-76
2022/06/30 02:28:30;;;;;;;3.75;3.45;;;;;;;;;;4955433;28;20203;-76
2022/06/30 02:30:58;;;;;;;4.10;3.33;;;;;;;;;;4955720;29;20632;-77
2022/06/30 02:33:26;;;;;;;4.27;3.43;;;;;;;;;;4954554;28;20294;-76
2022/06/30 02:35:55;;;;;;;4.20;3.70;;;;;;;;;;4955047;28;20258;-77
2022/06/30 02:38:23;;;;;;;4.80;3.57;;;;;;;;;;4955552;28;20206;-76
2022/06/30 02:40:52;;;;;;;3.50;3.20;;;;;;;;;;4954823;28;20210;-77
2022/06/30 02:43:20;;;;;;;3.53;3.23;;;;;;;;;;4955163;28;20202;-77
2022/06/30 02:45:50;;;;;;;3.57;3.27;;;;;;;;;;4955261;28;20230;-77
2022/06/30 02:48:18;;;;;;;4.33;3.50;;;;;;;;;;4955072;28;20266;-76
2022/06/30 02:50:47;;;;;;;7.13;3.67;;;;;;;;;;4955176;28;20254;-77
2022/06/30 02:53:15;;;;;;;4.23;3.47;;;;;;;;;;4955096;28;20202;-76
2022/06/30 02:55:44;;;;;;;3.77;3.30;;;;;;;;;;4954769;28;20234;-76
2022/06/30 02:58:12;;;;;;;6.32;3.03;;;;;;;;;;4954819;28;20209;-76
2022/06/30 03:00:41;;;;;;;4.03;3.20;;;;;;;;;;4955324;29;20254;-76
2022/06/30 03:03:10;;;;;;;4.83;3.30;;;;;;;;;;4955135;29;20202;-76
2022/06/30 03:05:39;;;;;;;5.45;3.40;;;;;;;;;;4954896;28;20750;-76
2022/06/30 03:08:07;;;;;;;3.90;3.00;;;;;;;;;;4955528;28;20202;-77
2022/06/30 03:10:36;;;;;;;3.83;3.10;;;;;;;;;;4954523;28;20203;-76
2022/06/30 03:13:04;;;;;;;3.40;3.10;;;;;;;;;;4955263;28;20565;-77
2022/06/30 03:15:33;;;;;;;3.57;3.27;;;;;;;;;;4954934;28;20282;-77
2022/06/30 03:18:01;;;;;;;4.90;3.50;;;;;;;;;;4955107;28;20269;-77
2022/06/30 03:20:31;;;;;;;3.50;3.20;;;;;;;;;;4954791;28;20262;-77
2022/06/30 03:22:59;;;;;;;4.03;3.17;;;;;;;;;;4955266;28;20274;-76
2022/06/30 03:25:28;;;;;;;3.70;3.40;;;;;;;;;;4953401;28;20235;-76
2022/06/30 03:27:56;;;;;;;5.13;3.50;;;;;;;;;;4954744;29;20210;-77
2022/06/30 03:30:25;;;;;;;3.63;3.33;;;;;;;;;;4954874;28;20203;-77
2022/06/30 03:32:54;;;;;;;3.90;3.20;;;;;;;;;;4954758;29;20638;-76
2022/06/30 03:35:22;;;;;;;3.90;3.30;;;;;;;;;;4954711;29;20230;-76
2022/06/30 03:37:52;;;;;;;4.22;3.33;;;;;;;;;;4954786;29;20206;-77
2022/06/30 03:40:20;;;;;;;3.90;3.60;;;;;;;;;;4953795;29;20274;-77
2022/06/30 03:42:49;;;;;;;5.43;3.50;;;;;;;;;;4954743;29;20206;-77
2022/06/30 03:45:17;;;;;;;4.33;3.40;;;;;;;;;;4954434;29;20758;-76
2022/06/30 03:47:46;;;;;;;3.57;3.23;;;;;;;;;;4954932;29;20236;-76
2022/06/30 03:50:14;;;;;;;4.35;3.40;;;;;;;;;;4954866;29;20281;-76
2022/06/30 03:52:43;;;;;;;4.23;3.37;;;;;;;;;;4954557;28;20243;-77
2022/06/30 03:55:13;;;;;;;4.27;3.20;;;;;;;;;;4956281;28;20581;-77
2022/06/30 03:57:41;;;;;;;5.95;3.40;;;;;;;;;;4957883;29;20217;-76
2022/06/30 04:00:10;;;;;;;7.77;3.80;;;;;;;;;;4958642;28;20207;-76
2022/06/30 04:02:39;;;;;;;4.47;3.70;;;;;;;;;;4958262;28;20210;-76
2022/06/30 04:05:08;;;;;;;5.78;3.60;;;;;;;;;;4957679;29;20302;-76
2022/06/30 04:07:40;;;;;;;5.57;3.47;;;;;;;;;;4958011;28;20203;-77
2022/06/30 04:10:09;;;;;;;3.80;3.40;;;;;;;;;;4957312;29;20203;-76
2022/06/30 04:12:39;;;;;;;4.00;3.57;;;;;;;;;;4958014;28;20778;-76
2022/06/30 04:15:08;;;;;;;5.70;3.50;;;;;;;;;;4957811;28;20623;-76
2022/06/30 04:17:37;;;;;;;3.90;3.50;;;;;;;;;;4958246;28;20644;-77
2022/06/30 04:20:06;;;;;;;4.15;3.40;;;;;;;;;;4957660;28;20277;-77
2022/06/30 04:22:34;;;;;;;3.83;3.47;;;;;;;;;;4957087;28;20210;-76
2022/06/30 04:25:03;;;;;;;4.00;3.40;;;;;;;;;;4957451;28;20293;-75
2022/06/30 04:27:32;;;;;;;5.47;3.28;;;;;;;;;;4957402;28;20206;-76
2022/06/30 04:30:02;;;;;;;3.80;3.40;;;;;;;;;;4957605;28;20202;-76
2022/06/30 04:32:38;;;;;;;3.85;3.55;;;;;;;;;;4957493;28;20621;-77
2022/06/30 04:35:08;;;;;;;3.85;3.35;;;;;;;;;;4957402;28;20310;-76
2022/06/30 04:37:36;;;;;;;4.25;3.58;;;;;;;;;;4956933;28;20570;-76
2022/06/30 04:43:00;;;;;;;4.75;3.33;;;;;;;;;;4944934;28;20206;-76
2022/06/30 04:45:29;;;;;;;4.65;3.40;;;;;;;;;;4957467;28;20230;-77
2022/06/30 04:48:05;;;;;;;4.10;3.50;;;;;;;;;;4957330;29;20187;-77
2022/06/30 04:50:33;;;;;;;3.75;3.42;;;;;;;;;;4957167;28;20692;-76
2022/06/30 04:53:01;;;;;;;4.55;3.63;;;;;;;;;;4956759;28;20684;-76
2022/06/30 04:55:30;;;;;;;4.93;3.50;;;;;;;;;;4957000;28;20230;-76
2022/06/30 04:57:58;;;;;;;4.00;3.50;;;;;;;;;;4957091;28;20228;-76
2022/06/30 05:00:27;;;;;;;3.97;3.58;;;;;;;;;;4957124;28;20683;-76
2022/06/30 05:02:57;;;;;;;3.67;3.38;;;;;;;;;;4957016;28;20722;-76
2022/06/30 05:05:25;;;;;;;4.00;3.40;;;;;;;;;;4956411;28;20226;-76
2022/06/30 05:07:53;;;;;;;4.13;3.72;;;;;;;;;;4956224;28;20211;-76
2022/06/30 05:10:22;;;;;;;4.80;3.55;;;;;;;;;;4956735;29;20203;-77
2022/06/30 05:12:50;;;;;;;6.90;3.30;;;;;;;;;;4956380;28;20226;-76
2022/06/30 05:15:19;;;;;;;4.35;3.33;;;;;;;;;;4956310;28;20290;-77
2022/06/30 05:17:47;;;;;;;4.30;3.40;;;;;;;;;;4956764;28;20265;-76
2022/06/30 05:20:17;;;;;;;3.88;3.40;;;;;;;;;;4956607;28;20215;-76
2022/06/30 05:22:45;;;;;;;4.97;3.45;;;;;;;;;;4955950;28;20262;-77
2022/06/30 05:28:07;;;;;;;4.10;3.20;;;;;;;;;;4956446;28;20206;-76
2022/06/30 05:30:35;;;;;;;4.78;3.45;;;;;;;;;;4956129;28;20202;-76
2022/06/30 05:33:03;;;;;;;4.75;3.45;;;;;;;;;;4956399;29;20230;-77
2022/06/30 05:35:33;;;;;;;7.40;3.50;;;;;;;;;;4955649;28;20230;-76
2022/06/30 05:38:02;;;;;;;3.78;3.00;;;;;;;;;;4956459;28;20667;-77
2022/06/30 05:40:30;;;;;;;4.97;3.20;;;;;;;;;;4956373;29;20257;-77
2022/06/30 05:42:59;;;;;;;3.47;3.15;;;;;;;;;;4954273;28;20203;-77
2022/06/30 05:45:27;;;;;;;4.95;3.25;;;;;;;;;;4956137;28;20699;-76
2022/06/30 05:47:55;;;;;;;4.57;3.33;;;;;;;;;;4956376;28;20210;-77
2022/06/30 05:50:24;;;;;;;4.13;3.28;;;;;;;;;;4955804;28;20226;-75
2022/06/30 05:52:54;;;;;;;4.13;3.30;;;;;;;;;;4955867;28;20274;-76
2022/06/30 05:55:22;;;;;;;3.65;3.28;;;;;;;;;;4955343;28;20766;-76
2022/06/30 05:57:52;;;;;;;3.30;3.03;;;;;;;;;;4956163;28;20210;-76
2022/06/30 06:00:21;;;;;;;3.47;3.17;;;;;;;;;;4956188;28;20211;-76
2022/06/30 06:02:49;;;;;;;3.20;2.90;;;;;;;;;;4955881;28;20199;-76
2022/06/30 06:05:21;;;;;;;4.43;3.50;;;;;;;;;;4955889;28;20318;-76
2022/06/30 06:07:49;;;;;;;3.50;3.20;;;;;;;;;;4955835;28;20237;-77
2022/06/30 06:10:20;;;;;;;4.38;3.38;;;;;;;;;;4954989;28;20203;-77
2022/06/30 06:12:48;;;;;;;5.00;3.30;;;;;;;;;;4955534;28;20206;-76
2022/06/30 06:15:17;;;;;;;4.75;3.38;;;;;;;;;;4955610;28;20280;-76
2022/06/30 06:17:47;;;;;;;3.83;3.47;;;;;;;;;;4954671;28;20215;-76
2022/06/30 06:20:16;;;;;;;3.63;3.25;;;;;;;;;;4955824;28;20614;-77
2022/06/30 06:22:45;;;;;;;3.53;3.22;;;;;;;;;;4954693;28;20282;-77
2022/06/30 06:25:14;;;;;;;3.60;3.30;;;;;;;;;;4956066;28;20226;-77
2022/06/30 06:29:05;;;;;;;4.55;3.50;;;;;;;;;;4955549;28;20607;-76
2022/06/30 06:30:32;;;;;;;4.00;3.00;;;;;;;;;;4955393;28;20219;-77
2022/06/30 06:33:01;;;;;;;3.50;3.20;;;;;;;;;;4955380;28;20226;-77
2022/06/30 06:35:29;;;;;;;3.80;3.50;;;;;;;;;;4955290;28;20231;-77
2022/06/30 06:37:58;;;;;;;5.03;3.00;;;;;;;;;;4954902;28;20686;-76
2022/06/30 06:40:26;;;;;;;5.85;3.40;;;;;;;;;;4955380;28;20656;-76
2022/06/30 06:42:56;;;;;;;5.13;3.38;;;;;;;;;;4955416;28;20277;-76
2022/06/30 06:45:24;;;;;;;5.25;3.47;;;;;;;;;;4955464;28;20230;-77
2022/06/30 06:47:53;;;;;;;4.45;3.58;;;;;;;;;;4954997;28;20266;-77
2022/06/30 06:50:21;;;;;;;4.80;3.58;;;;;;;;;;4954852;28;20218;-77
2022/06/30 06:52:49;;;;;;;4.75;3.60;;;;;;;;;;4953918;28;20656;-76
2022/06/30 06:55:19;;;;;;;6.22;3.30;;;;;;;;;;4954424;28;20226;-77
2022/06/30 07:00:31;;;;;;;4.63;4.00;;;;;;;;;;4954844;29;20214;-77
2022/06/30 07:03:00;;;;;;;3.80;3.40;;;;;;;;;;4954890;29;20253;-77
2022/06/30 07:05:28;;;;;;;4.55;3.47;;;;;;;;;;4954994;29;20273;-76
2022/06/30 07:07:58;;;;;;;3.95;3.55;;;;;;;;;;4954511;29;20198;-77
2022/06/30 07:10:30;;;;;;;6.60;3.58;;;;;;;;;;4956670;29;20642;-77
2022/06/30 07:12:58;;;;;;;4.25;3.85;;;;;;;;;;4954520;29;20242;-77
2022/06/30 07:15:27;;;;;;;3.80;3.47;;;;;;;;;;4955054;29;20234;-77
2022/06/30 07:17:58;;;;;;;5.05;3.97;;;;;;;;;;4954498;29;20269;-77
2022/06/30 07:20:27;;;;;;;4.78;4.28;;;;;;;;;;4955049;28;20206;-78
2022/06/30 07:22:55;;;;;;;4.80;4.40;;;;;;;;;;4954243;28;20674;-77
2022/06/30 07:25:44;;;;;;;6.30;4.63;;;;;;;;;;4954931;28;20226;-78
2022/06/30 07:28:12;;;;;;;5.70;4.53;;;;;;;;;;4955631;28;20206;-78
2022/06/30 07:31:00;;;;;;;5.32;4.82;;;;;;;;;;4958389;28;20261;-77
2022/06/30 07:33:30;;;;;;;5.60;5.10;;;;;;;;;;4957431;28;20231;-78
2022/06/30 07:35:59;;;;;;;5.20;4.70;;;;;;;;;;4958192;28;20226;-78
2022/06/30 07:38:28;;;;;;;5.68;4.90;;;;;;;;;;4958205;29;20219;-77
2022/06/30 07:40:56;;;;;;;5.22;4.72;;;;;;;;;;4958361;28;20213;-78
2022/06/30 07:43:24;;;;;;;7.10;5.13;;;;;;;;;;4958402;29;20281;-77
2022/06/30 07:45:53;;;;;;;5.28;4.78;;;;;;;;;;4958192;28;20233;-77
2022/06/30 07:48:22;;;;;;;8.05;4.88;;;;;;;;;;4957406;29;20206;-77
2022/06/30 07:50:51;;;;;;;5.15;4.70;;;;;;;;;;4957225;28;20214;-77
2022/06/30 07:53:20;;;;;;;5.32;4.93;;;;;;;;;;4958050;28;20206;-77
2022/06/30 07:55:48;;;;;;;5.63;4.60;;;;;;;;;;4958081;28;20282;-77
2022/06/30 07:58:17;;;;;;;4.70;4.40;;;;;;;;;;4957919;28;20206;-78
2022/06/30 08:00:45;;;;;;;5.97;4.55;;;;;;;;;;4958911;28;20227;-78
2022/06/30 08:03:14;;;;;;;5.80;5.22;;;;;;;;;;4958110;28;20206;-77
2022/06/30 08:05:42;;;;;;;6.20;5.60;;;;;;;;;;4957347;28;20226;-78
2022/06/30 08:08:12;;;;;;;5.75;5.30;;;;;;;;;;4957654;28;20214;-78
2022/06/30 08:10:40;;;;;;;6.55;5.20;;;;;;;;;;4958419;28;20622;-78
2022/06/30 08:13:09;;;;;;;5.72;5.22;;;;;;;;;;4957658;28;20218;-78
2022/06/30 08:15:38;;;;;;;6.30;5.60;;;;;;;;;;4957386;28;20230;-78
2022/06/30 08:18:07;;;;;;;6.03;5.18;;;;;;;;;;4957424;28;20202;-78
2022/06/30 08:20:36;;;;;;;5.70;5.20;;;;;;;;;;4957003;29;20249;-78
2022/06/30 08:23:04;;;;;;;6.55;5.95;;;;;;;;;;4957727;28;20218;-78
2022/06/30 08:25:34;;;;;;;6.07;5.57;;;;;;;;;;4957352;28;20226;-78
2022/06/30 08:28:04;;;;;;;5.95;5.50;;;;;;;;;;4957339;28;20295;-77
2022/06/30 08:30:32;;;;;;;6.47;5.93;;;;;;;;;;4957834;28;20222;-78
2022/06/30 08:33:00;;;;;;;6.32;5.63;;;;;;;;;;4957260;28;20209;-77
2022/06/30 08:35:29;;;;;;;5.85;5.38;;;;;;;;;;4956124;28;20289;-78
2022/06/30 08:38:17;;;;;;;6.32;5.68;;;;;;;;;;4957529;28;20207;-79
2022/06/30 08:43:35;;;;;;;6.97;6.38;;;;;;;;;;4958911;28;20219;-78
2022/06/30 08:46:04;;;;;;;7.55;6.10;;;;;;;;;;4958840;29;20726;-79
2022/06/30 08:48:32;;;;;;;7.18;6.57;;;;;;;;;;4958120;29;20218;-78
2022/06/30 08:51:04;;;;;;;6.78;5.95;;;;;;;;;;4958054;28;20211;-79
2022/06/30 08:53:39;;;;;;;6.32;5.82;;;;;;;;;;4958639;29;20671;-78
2022/06/30 08:56:09;;;;;;;7.22;6.63;;;;;;;;;;4957723;28;20221;-78
2022/06/30 08:58:38;;;;;;;7.78;7.05;;;;;;;;;;4957955;28;20211;-78
2022/06/30 09:01:07;;;;;;;6.93;6.32;;;;;;;;;;4958702;29;20214;-79
2022/06/30 09:03:36;;;;;;;6.50;6.00;;;;;;;;;;4957716;29;20687;-79
2022/06/30 09:06:06;;;;;;;7.10;6.47;;;;;;;;;;4957081;28;20692;-76
2022/06/30 09:08:34;;;;;;;7.72;7.13;;;;;;;;;;4956558;28;20203;-77
2022/06/30 09:11:04;;;;;;;7.95;7.30;;;;;;;;;;4956528;28;20203;-77
2022/06/30 09:13:44;;;;;;;8.30;7.60;;;;;;;;;;4956547;28;20202;-77
2022/06/30 09:16:13;;;;;;;7.75;6.85;;;;;;;;;;4957866;28;20634;-77
2022/06/30 09:18:41;;;;;;;7.65;6.95;;;;;;;;;;4955140;28;20637;-78
2022/06/30 09:21:15;;;;;;;7.90;7.10;;;;;;;;;;4956516;28;20230;-77
2022/06/30 09:23:45;;;;;;;7.60;6.90;;;;;;;;;;4956065;28;20634;-77
2022/06/30 09:26:19;;;;;;;8.50;7.72;;;;;;;;;;4956235;28;20718;-78
2022/06/30 09:28:51;;;;;;;8.30;7.55;;;;;;;;;;4955956;28;20537;-77
2022/06/30 09:31:40;;;;;;;9.00;8.13;;;;;;;;;;4955969;29;20203;-78
2022/06/30 09:34:16;;;;;;;7.78;7.18;;;;;;;;;;4955406;28;20203;-77
2022/06/30 09:36:46;;;;;;;7.75;7.05;;;;;;;;;;4956005;29;20209;-77
2022/06/30 09:39:16;;;;;;;8.18;7.40;;;;;;;;;;4955964;29;20207;-77
2022/06/30 09:41:46;;;;;;;8.27;7.47;;;;;;;;;;4956127;29;20214;-77
2022/06/30 09:44:22;;;;;;;7.63;7.03;;;;;;;;;;4956192;28;20210;-77
2022/06/30 09:46:57;;;;;;;7.57;6.97;;;;;;;;;;4956000;28;20210;-77
2022/06/30 09:49:30;;;;;;;7.95;7.18;;;;;;;;;;4954589;29;20297;-78
2022/06/30 09:51:59;;;;;;;7.72;7.13;;;;;;;;;;4956028;28;20663;-78
2022/06/30 09:54:28;;;;;;;7.47;6.88;;;;;;;;;;4955686;28;20277;-78
2022/06/30 09:57:04;;;;;;;7.82;7.03;;;;;;;;;;4955780;28;20712;-77
2022/06/30 09:59:34;;;;;;;9.07;8.27;;;;;;;;;;4956428;28;20246;-75
2022/06/30 10:02:06;;;;;;;8.35;7.65;;;;;;;;;;4955771;28;20195;-76
2022/06/30 10:04:53;;;;;;;8.13;7.40;;;;;;;;;;4955358;28;20703;-75
2022/06/30 10:07:22;;;;;;;8.40;7.60;;;;;;;;;;4955822;28;20206;-77
2022/06/30 10:09:51;;;;;;;8.05;7.35;;;;;;;;;;4955519;28;20619;-75
2022/06/30 10:12:20;;;;;;;9.05;8.35;;;;;;;;;;4955444;28;20218;-76
2022/06/30 10:14:51;;;;;;;8.13;7.32;;;;;;;;;;4955136;28;20285;-75
2022/06/30 10:17:20;;;;;;;8.50;7.80;;;;;;;;;;4954726;28;20210;-76
2022/06/30 10:19:50;;;;;;;7.80;7.20;;;;;;;;;;4956092;28;20217;-75
2022/06/30 10:22:20;;;;;;;8.52;7.60;;;;;;;;;;4955487;28;20253;-75
2022/06/30 10:24:49;;;;;;;8.15;7.45;;;;;;;;;;4955131;28;20222;-75
2022/06/30 10:27:18;;;;;;;8.32;7.53;;;;;;;;;;4955278;28;20206;-76
2022/06/30 10:29:49;;;;;;;8.85;8.00;;;;;;;;;;4954870;28;20248;-76
2022/06/30 10:32:36;;;;;;;7.78;7.07;;;;;;;;;;4955603;28;20186;-76
2022/06/30 10:35:08;;;;;;;9.05;8.25;;;;;;;;;;4955008;28;20238;-75
2022/06/30 10:37:41;;;;;;;8.45;7.80;;;;;;;;;;4955571;28;20214;-76
2022/06/30 10:40:11;;;;;;;8.52;7.57;;;;;;;;;;4955239;28;20229;-75
2022/06/30 10:42:43;;;;;;;8.63;7.82;;;;;;;;;;4955444;28;20190;-76
2022/06/30 10:45:30;;;;;;;8.90;8.10;;;;;;;;;;4954451;28;20237;-76
2022/06/30 10:48:00;;;;;;;8.73;7.95;;;;;;;;;;4954790;28;20648;-75
2022/06/30 10:50:34;;;;;;;8.77;8.02;;;;;;;;;;4954998;28;20297;-76
2022/06/30 10:53:03;;;;;;;8.55;7.78;;;;;;;;;;4955070;28;20194;-76
2022/06/30 10:55:43;;;;;;;8.65;7.88;;;;;;;;;;4955083;28;20622;-76
2022/06/30 10:58:12;;;;;;;8.80;8.00;;;;;;;;;;4954945;28;20282;-75
2022/06/30 11:00:44;;;;;;;9.00;7.53;;;;;;;;;;4954780;28;20668;-74
2022/06/30 11:03:33;;;;;;;8.80;8.10;;;;;;;;;;4955647;28;20244;-76
2022/06/30 11:06:05;;;;;;;8.60;7.90;;;;;;;;;;4958147;29;20273;-76
2022/06/30 11:08:49;;;;;;;8.80;7.95;;;;;;;;;;4958940;29;20644;-77
2022/06/30 11:11:37;;;;;;;8.85;7.88;;;;;;;;;;4958863;28;20194;-75
2022/06/30 11:14:23;;;;;;;9.25;8.40;;;;;;;;;;4958833;28;20214;-76
2022/06/30 11:16:53;;;;;;;8.98;8.20;;;;;;;;;;4958162;29;20222;-76
2022/06/30 11:19:24;;;;;;;9.90;7.75;;;;;;;;;;4958422;28;20215;-76
2022/06/30 11:21:54;;;;;;;94.95;14.63;;;;;;;;;;4958806;28;20195;-76
2022/06/30 11:24:24;;;;;;;7.97;7.38;;;;;;;;;;4958580;28;20226;-77
2022/06/30 11:29:40;;;;;;;8.23;7.50;;;;;;;;;;4958659;28;20557;-77
2022/06/30 11:32:09;;;;;;;8.18;7.47;;;;;;;;;;4957819;28;20718;-76
2022/06/30 11:34:40;;;;;;;7.90;7.20;;;;;;;;;;4958164;28;20230;-77
2022/06/30 11:37:10;;;;;;;8.05;7.45;;;;;;;;;;4958458;28;20690;-77
2022/06/30 11:39:39;;;;;;;8.82;8.00;;;;;;;;;;4958500;28;20614;-78
2022/06/30 11:42:08;;;;;;;7.70;7.00;;;;;;;;;;4958040;28;20233;-78
2022/06/30 11:44:38;;;;;;;7.90;7.20;;;;;;;;;;4957845;28;20227;-76
2022/06/30 11:47:07;;;;;;;7.95;7.18;;;;;;;;;;4958025;28;20257;-78
2022/06/30 11:49:42;;;;;;;7.88;7.18;;;;;;;;;;4957856;28;20299;-77
2022/06/30 11:52:15;;;;;;;8.32;7.53;;;;;;;;;;4958085;28;20206;-77
2022/06/30 11:54:44;;;;;;;7.57;6.90;;;;;;;;;;4957788;28;20227;-76
2022/06/30 11:57:13;;;;;;;7.70;7.10;;;;;;;;;;4957054;28;20230;-77
2022/06/30 11:59:45;;;;;;;11.73;6.88;;;;;;;;;;4957818;28;20727;-76
2022/06/30 12:02:14;;;;;;;6.65;6.15;;;;;;;;;;4957968;28;20211;-77
2022/06/30 12:04:43;;;;;;;7.55;6.93;;;;;;;;;;4957840;28;20237;-77
2022/06/30 12:07:15;;;;;;;7.32;6.63;;;;;;;;;;4957809;28;20214;-76
2022/06/30 12:09:44;;;;;;;7.03;6.43;;;;;;;;;;4957879;28;20221;-77
2022/06/30 12:12:13;;;;;;;6.20;5.60;;;;;;;;;;4957276;28;20618;-77
2022/06/30 12:14:46;;;;;;;6.82;6.22;;;;;;;;;;4956863;28;20667;-78
2022/06/30 12:17:15;;;;;;;7.35;6.65;;;;;;;;;;4958141;29;20218;-78
2022/06/30 12:19:43;;;;;;;7.63;6.82;;;;;;;;;;4958168;29;20605;-77
2022/06/30 12:22:13;;;;;;;8.80;6.43;;;;;;;;;;4957221;28;20261;-77
2022/06/30 12:24:43;;;;;;;10.07;6.90;;;;;;;;;;4957587;28;20228;-77
2022/06/30 12:27:25;;;;;;;8.98;6.55;;;;;;;;;;4956848;28;20206;-77
2022/06/30 12:29:56;;;;;;;16.55;6.95;;;;;;;;;;4957377;28;20635;-77
2022/06/30 12:32:25;;;;;;;7.40;6.70;;;;;;;;;;4957443;28;20198;-77
2022/06/30 12:34:54;;;;;;;7.18;6.57;;;;;;;;;;4956852;29;20223;-76
2022/06/30 12:37:31;;;;;;;12.25;7.18;;;;;;;;;;4957410;29;20590;-77
2022/06/30 12:40:01;;;;;;;10.85;7.43;;;;;;;;;;4957141;29;20217;-76
2022/06/30 12:42:40;;;;;;;9.57;6.40;;;;;;;;;;4937840;28;20661;-77
2022/06/30 12:45:28;;;;;;;17.27;7.57;;;;;;;;;;4976020;28;20221;-77
2022/06/30 12:47:57;;;;;;;15.00;6.28;;;;;;;;;;4976646;28;20182;-77
2022/06/30 12:50:25;;;;;;;9.18;6.30;;;;;;;;;;4962633;28;20222;-77
2022/06/30 12:52:55;;;;;;;18.88;6.45;;;;;;;;;;4959214;28;20217;-76
2022/06/30 12:55:24;;;;;;;6.40;5.65;;;;;;;;;;4967421;28;20695;-76
2022/06/30 12:57:53;;;;;;;6.60;5.70;;;;;;;;;;4955635;29;20222;-78
2022/06/30 13:00:22;;;;;;;6.25;5.60;;;;;;;;;;4956252;28;20242;-77
2022/06/30 13:02:52;;;;;;;6.03;5.43;;;;;;;;;;4957004;28;20663;-77
2022/06/30 13:05:21;;;;;;;16.83;6.13;;;;;;;;;;4954902;28;20222;-77
2022/06/30 13:07:56;;;;;;;93.22;13.82;;;;;;;;;;4612004;28;10000079;-76
2022/06/30 13:11:04;;;;;;;19.23;6.45;;;;;;;;;;4953633;28;20230;-76
2022/06/30 13:13:14;;;;;;;6.50;6.00;;;;;;;;;;4953419;28;20265;-76
2022/06/30 13:15:43;;;;;;;5.72;5.32;;;;;;;;;;4953210;29;20226;-76
2022/06/30 13:18:11;;;;;;;6.78;5.68;;;;;;;;;;4953507;28;20253;-76
2022/06/30 13:20:40;;;;;;;6.32;5.82;;;;;;;;;;4953272;28;20226;-77
2022/06/30 13:23:10;;;;;;;7.07;5.95;;;;;;;;;;4953349;28;20207;-76
2022/06/30 13:25:38;;;;;;;6.38;5.80;;;;;;;;;;4951826;28;20234;-76
2022/06/30 13:28:06;;;;;;;7.00;6.13;;;;;;;;;;4953649;28;20667;-76
2022/06/30 13:30:39;;;;;;;6.13;5.72;;;;;;;;;;4952969;29;20217;-75
2022/06/30 13:33:07;;;;;;;8.45;5.80;;;;;;;;;;4953170;28;20213;-77
2022/06/30 13:35:36;;;;;;;6.28;5.68;;;;;;;;;;4952926;29;20231;-76
2022/06/30 13:38:04;;;;;;;6.70;6.00;;;;;;;;;;4953552;28;20250;-76
2022/06/30 13:40:36;;;;;;;6.40;5.75;;;;;;;;;;4951644;28;20210;-76
2022/06/30 13:43:05;;;;;;;6.50;6.00;;;;;;;;;;4953782;28;20191;-76
2022/06/30 13:45:33;;;;;;;6.05;5.60;;;;;;;;;;4952986;28;20231;-75
2022/06/30 13:48:02;;;;;;;9.60;6.00;;;;;;;;;;4953105;28;20226;-76
2022/06/30 13:50:30;;;;;;;9.02;5.78;;;;;;;;;;4953011;29;20248;-76
2022/06/30 13:52:59;;;;;;;7.50;6.05;;;;;;;;;;4953204;28;20672;-76
2022/06/30 13:55:27;;;;;;;10.65;6.00;;;;;;;;;;4951450;28;20292;-76
2022/06/30 13:57:57;;;;;;;8.85;6.07;;;;;;;;;;4952526;28;20238;-76
2022/06/30 14:00:26;;;;;;;10.80;6.30;;;;;;;;;;4953127;29;20207;-76
2022/06/30 14:02:55;;;;;;;9.10;6.00;;;;;;;;;;4952566;28;20225;-75
2022/06/30 14:05:23;;;;;;;7.00;6.10;;;;;;;;;;4952270;29;20226;-75
2022/06/30 14:07:52;;;;;;;6.30;5.80;;;;;;;;;;4952929;28;20202;-76
2022/06/30 14:10:21;;;;;;;6.70;6.10;;;;;;;;;;4952236;28;20210;-78
2022/06/30 14:13:05;;;;;;;6.85;5.90;;;;;;;;;;4952432;28;20202;-75
2022/06/30 14:15:33;;;;;;;6.78;5.72;;;;;;;;;;4950945;28;20218;-75
2022/06/30 14:18:02;;;;;;;6.72;6.10;;;;;;;;;;4953166;28;20223;-76
2022/06/30 14:20:31;;;;;;;6.50;5.90;;;;;;;;;;4952803;29;20546;-77
2022/06/30 14:22:59;;;;;;;6.72;6.00;;;;;;;;;;4955336;28;20218;-77
2022/06/30 14:25:28;;;;;;;8.50;6.05;;;;;;;;;;4955430;28;20253;-76
2022/06/30 14:27:56;;;;;;;6.93;6.20;;;;;;;;;;4953220;28;20217;-77
2022/06/30 14:30:26;;;;;;;14.27;13.07;;;;;;;;;;4955282;29;20577;-77
2022/06/30 14:32:54;;;;;;;6.93;5.97;;;;;;;;;;4955313;28;20683;-77
2022/06/30 14:35:26;;;;;;;8.27;6.00;;;;;;;;;;4954906;29;20222;-77
2022/06/30 14:37:55;;;;;;;6.85;6.25;;;;;;;;;;4956483;28;20321;-77
2022/06/30 14:40:23;;;;;;;6.38;5.90;;;;;;;;;;4955424;29;20225;-77
2022/06/30 14:42:53;;;;;;;6.40;5.78;;;;;;;;;;4955079;28;20265;-78
2022/06/30 14:45:23;;;;;;;6.60;6.10;;;;;;;;;;4955022;28;20230;-77
2022/06/30 14:47:53;;;;;;;6.55;5.93;;;;;;;;;;4954880;29;20556;-76
2022/06/30 14:50:22;;;;;;;6.20;5.60;;;;;;;;;;4954312;28;20214;-77
2022/06/30 14:52:52;;;;;;;7.55;5.70;;;;;;;;;;4955108;29;20214;-77
2022/06/30 14:55:21;;;;;;;6.22;5.50;;;;;;;;;;4954790;28;20235;-77
2022/06/30 14:57:49;;;;;;;6.32;5.70;;;;;;;;;;4954835;29;20223;-77
2022/06/30 15:00:20;;;;;;;6.78;5.75;;;;;;;;;;4954820;28;20273;-76
2022/06/30 15:02:49;;;;;;;6.22;5.70;;;;;;;;;;4955129;29;20582;-77
2022/06/30 15:05:23;;;;;;;6.85;6.25;;;;;;;;;;4953822;29;20246;-77
2022/06/30 15:07:51;;;;;;;6.28;5.78;;;;;;;;;;4955027;28;20739;-77
2022/06/30 15:10:20;;;;;;;6.00;5.45;;;;;;;;;;4954800;29;20210;-77
2022/06/30 15:12:48;;;;;;;5.82;5.32;;;;;;;;;;4953581;28;20586;-76
2022/06/30 15:15:17;;;;;;;6.43;5.82;;;;;;;;;;4954754;28;20703;-77
2022/06/30 15:17:45;;;;;;;6.22;5.70;;;;;;;;;;4954899;28;20579;-77
2022/06/30 15:20:15;;;;;;;6.03;5.53;;;;;;;;;;4954733;29;20217;-77